KR-0322 weather

Daewoo Worldmark Centrum Apartments Heliports
Busan, Busan Gwang'yeogsi, South Korea

Public forecast

Using degrees Celsius for public forecast. Weather courtesy of forecast.io.

METAR (pilot weather report)

Closest report is Gimhae International Airport, 10.3 nm (19.1 km) W. Retrieved 2019/08/25 10:00 UTC (54 minutes ago):

RKPK 251000Z 17007KT CAVOK 25/20 Q1012

TAF (pilot weather forecast)

Closest forecast is Gimhae International Airport, 10.3 nm (19.1 km) W. Retrieved 2019/08/25 06:00 UTC (5 hours ago):

TAF RKPK 250500Z 2506/2612 18008KT 9999 SCT030 BKN200 TN20/2520Z TX29/2605Z BECMG 2511/2512 33006KT BECMG 2602/2603 18008KT